To NAV CANADA Home Page Login to a new session Search on AWWS site Feedback and Comments Disclaimer Vers la page française équivalente Tips FAQ What's new on the site To the Forecasts and Observations / NOTAM section To "File a Flight Plan" website Publications and other links Update of the User's profile FIC Telephone Numbers My Weather Data Folder Route Weather Data Regional Weather Data Local Weather Data To the Forecasts and Observations / NOTAM section
Request Generated 09/28/2016 at 05:05:59 UTC . Weather information available at that time is displayed.

METAR/TAF

If you find any discrepancies between the coded METAR/TAF and the plain language METAR/TAF please use the coded METAR/TAF. LWIS bulletins are not decoded in plain language.

CALGARY/SPRINGBANK/AB    (show WxCam)

METAR CYBW 280500Z AUTO 34003KT 290V350 9SM BKN047 OVC055 07/05 A3028 RMK SLP275=
METAR
LOCATION
CYBW - CALGARY/SPRINGBANK/AB
DATE - TIME
28 SEPTEMBER 2016 - 0500 UTC
WIND
340 TRUE @ 3  KNOTS
VARIATION
290 <-> 350  DEG
VISIBILITY
9 STAT.  MILES
RUNWAY VISUAL RANGE
WEATHER
CLOUDINESS
BROKEN CLOUDS (5/8 - 7/8) 4700  FT
OVERCAST 5500  FT
TEMP / DEWPOINT
7 C / 5 C
ALTIMETER
30.28 IN HG
RECENT WEATHER
WIND SHEAR

METAR CYBW 280400Z AUTO 30003KT 9SM OVC050 08/05 A3027 RMK SLP272=
METAR
LOCATION
CYBW - CALGARY/SPRINGBANK/AB
DATE - TIME
28 SEPTEMBER 2016 - 0400 UTC
WIND
300 TRUE @ 3  KNOTS
VISIBILITY
9 STAT.  MILES
RUNWAY VISUAL RANGE
WEATHER
CLOUDINESS
OVERCAST 5000  FT
TEMP / DEWPOINT
8 C / 5 C
ALTIMETER
30.27 IN HG
RECENT WEATHER
WIND SHEAR

METAR CYBW 280300Z AUTO VRB02KT 9SM OVC044 08/04 A3025 RMK SLP267=
METAR
LOCATION
CYBW - CALGARY/SPRINGBANK/AB
DATE - TIME
28 SEPTEMBER 2016 - 0300 UTC
WIND
VRB @ 2  KNOTS
VISIBILITY
9 STAT.  MILES
RUNWAY VISUAL RANGE
WEATHER
CLOUDINESS
OVERCAST 4400  FT
TEMP / DEWPOINT
8 C / 4 C
ALTIMETER
30.25 IN HG
RECENT WEATHER
WIND SHEAR

*** REMARK        : Forecast period has ended; this was the last TAF issued
TAF CYBW 272338Z 2800/2804 33008KT P6SM BKN030 RMK FCST BASED ON AUTO OBS. NXT FCST WILL BE ISSUED AT 281145Z=
TAF
LOCATION

CYBW - CALGARY/SPRINGBANK/AB
VALIDITY [UTC]
27 SEP - 2338 to
28 SEP - 0400
 
TIMES
[UTC]
WIND
[DEGREES TRUE]
VISIBILITY
[STAT. MILES]
WEATHER
CLOUDINESS
[FEET AGL]
 
28 SEP - 0000 to
28 SEP - 0400
330 @ 8 KNOTS
6+
NIL
3000 BROKEN
REMARKS
THE FORECAST IS BASED ON AUTOMATIC OBSERVATIONS - THE NEXT FORECAST WILL BE ISSUED AT 1145 UTC ON DAY 28


Your time UTC time
Weather data provided by Environment Canada and NAV CANADA